sensor_id;sensor_type;location;lat;lon;timestamp;temperature;humidity
37289;DHT22;23174;49.462;11.000;2022-09-01T00:01:49;18.80;99.90
37289;DHT22;23174;49.462;11.000;2022-09-01T00:03:51;18.80;99.90
37289;DHT22;23174;49.462;11.000;2022-09-01T00:05:52;18.80;99.90
37289;DHT22;23174;49.462;11.000;2022-09-01T00:07:54;18.90;99.90
37289;DHT22;23174;49.462;11.000;2022-09-01T00:09:55;18.80;99.90
37289;DHT22;23174;49.462;11.000;2022-09-01T00:11:55;18.80;99.90
37289;DHT22;23174;49.462;11.000;2022-09-01T00:13:58;18.80;99.90
37289;DHT22;23174;49.462;11.000;2022-09-01T00:16:00;18.80;99.90
37289;DHT22;23174;49.462;11.000;2022-09-01T00:18:03;18.80;99.90
37289;DHT22;23174;49.462;11.000;2022-09-01T00:20:05;18.90;99.90
37289;DHT22;23174;49.462;11.000;2022-09-01T00:22:06;18.80;99.90
37289;DHT22;23174;49.462;11.000;2022-09-01T00:24:08;18.90;99.90
37289;DHT22;23174;49.462;11.000;2022-09-01T00:26:08;18.90;99.90
37289;DHT22;23174;49.462;11.000;2022-09-01T00:28:09;18.90;99.90
37289;DHT22;23174;49.462;11.000;2022-09-01T00:30:10;18.90;99.90
37289;DHT22;23174;49.462;11.000;2022-09-01T00:32:11;18.80;99.90
37289;DHT22;23174;49.462;11.000;2022-09-01T00:34:12;18.70;99.90
37289;DHT22;23174;49.462;11.000;2022-09-01T00:36:14;18.80;99.90
37289;DHT22;23174;49.462;11.000;2022-09-01T00:38:14;18.80;99.90
37289;DHT22;23174;49.462;11.000;2022-09-01T00:40:16;18.80;99.90
37289;DHT22;23174;49.462;11.000;2022-09-01T00:42:17;18.80;99.90
37289;DHT22;23174;49.462;11.000;2022-09-01T00:44:19;18.80;99.90
37289;DHT22;23174;49.462;11.000;2022-09-01T00:46:29;18.80;99.90
37289;DHT22;23174;49.462;11.000;2022-09-01T00:48:32;18.80;99.90
37289;DHT22;23174;49.462;11.000;2022-09-01T00:50:32;18.80;99.90
37289;DHT22;23174;49.462;11.000;2022-09-01T00:52:35;18.90;99.90
37289;DHT22;23174;49.462;11.000;2022-09-01T00:54:44;18.90;99.90
37289;DHT22;23174;49.462;11.000;2022-09-01T00:56:46;19.00;99.90
37289;DHT22;23174;49.462;11.000;2022-09-01T00:58:47;18.90;99.90
37289;DHT22;23174;49.462;11.000;2022-09-01T01:00:48;18.90;99.90
37289;DHT22;23174;49.462;11.000;2022-09-01T01:02:51;18.90;99.90
37289;DHT22;23174;49.462;11.000;2022-09-01T01:05:01;18.90;99.90
37289;DHT22;23174;49.462;11.000;2022-09-01T01:07:02;18.90;99.90
37289;DHT22;23174;49.462;11.000;2022-09-01T01:09:03;18.80;99.90
37289;DHT22;23174;49.462;11.000;2022-09-01T01:11:07;18.90;99.90
37289;DHT22;23174;49.462;11.000;2022-09-01T01:13:12;18.90;99.90
37289;DHT22;23174;49.462;11.000;2022-09-01T01:15:13;19.00;99.90
37289;DHT22;23174;49.462;11.000;2022-09-01T01:17:15;18.90;99.90
37289;DHT22;23174;49.462;11.000;2022-09-01T01:21:57;18.80;99.90
37289;DHT22;23174;49.462;11.000;2022-09-01T01:24:23;18.80;99.90
37289;DHT22;23174;49.462;11.000;2022-09-01T01:26:24;18.80;99.90
37289;DHT22;23174;49.462;11.000;2022-09-01T01:28:31;18.80;99.90
37289;DHT22;23174;49.462;11.000;2022-09-01T01:30:32;18.80;99.90
37289;DHT22;23174;49.462;11.000;2022-09-01T01:32:33;18.80;99.90
37289;DHT22;23174;49.462;11.000;2022-09-01T01:34:35;18.80;99.90
37289;DHT22;23174;49.462;11.000;2022-09-01T01:36:37;18.70;99.90
37289;DHT22;23174;49.462;11.000;2022-09-01T01:38:39;18.80;99.90
37289;DHT22;23174;49.462;11.000;2022-09-01T01:40:42;18.80;99.90
37289;DHT22;23174;49.462;11.000;2022-09-01T01:42:45;18.80;99.90
37289;DHT22;23174;49.462;11.000;2022-09-01T01:44:46;18.80;99.90
37289;DHT22;23174;49.462;11.000;2022-09-01T01:46:49;18.70;99.90
37289;DHT22;23174;49.462;11.000;2022-09-01T01:48:51;18.80;99.90
37289;DHT22;23174;49.462;11.000;2022-09-01T01:50:54;18.70;99.90
37289;DHT22;23174;49.462;11.000;2022-09-01T01:52:55;18.70;99.90
37289;DHT22;23174;49.462;11.000;2022-09-01T01:54:59;18.70;99.90
37289;DHT22;23174;49.462;11.000;2022-09-01T01:57:00;18.70;99.90
37289;DHT22;23174;49.462;11.000;2022-09-01T01:59:03;18.70;99.90
37289;DHT22;23174;49.462;11.000;2022-09-01T02:01:05;18.70;99.90
37289;DHT22;23174;49.462;11.000;2022-09-01T02:03:06;18.70;99.90
37289;DHT22;23174;49.462;11.000;2022-09-01T02:05:07;18.70;99.90
37289;DHT22;23174;49.462;11.000;2022-09-01T02:07:12;18.60;99.90
37289;DHT22;23174;49.462;11.000;2022-09-01T02:09:14;18.50;99.90
37289;DHT22;23174;49.462;11.000;2022-09-01T02:11:15;18.50;99.90
37289;DHT22;23174;49.462;11.000;2022-09-01T02:13:20;18.40;99.90
37289;DHT22;23174;49.462;11.000;2022-09-01T02:15:38;18.50;99.90
37289;DHT22;23174;49.462;11.000;2022-09-01T02:17:43;18.50;99.90
37289;DHT22;23174;49.462;11.000;2022-09-01T02:19:44;18.40;99.90
37289;DHT22;23174;49.462;11.000;2022-09-01T02:21:46;18.50;99.90
37289;DHT22;23174;49.462;11.000;2022-09-01T02:24:02;18.40;99.90
37289;DHT22;23174;49.462;11.000;2022-09-01T02:26:04;18.30;99.90
37289;DHT22;23174;49.462;11.000;2022-09-01T02:28:06;18.30;99.90
37289;DHT22;23174;49.462;11.000;2022-09-01T02:30:09;18.30;99.90
37289;DHT22;23174;49.462;11.000;2022-09-01T02:32:10;18.30;99.90
37289;DHT22;23174;49.462;11.000;2022-09-01T02:34:11;18.30;99.90
37289;DHT22;23174;49.462;11.000;2022-09-01T02:36:16;18.30;99.90
37289;DHT22;23174;49.462;11.000;2022-09-01T02:38:17;18.30;99.90
37289;DHT22;23174;49.462;11.000;2022-09-01T02:40:17;18.20;99.90
37289;DHT22;23174;49.462;11.000;2022-09-01T02:42:21;18.30;99.90
37289;DHT22;23174;49.462;11.000;2022-09-01T02:44:28;18.20;99.90
37289;DHT22;23174;49.462;11.000;2022-09-01T02:46:30;18.10;99.90
37289;DHT22;23174;49.462;11.000;2022-09-01T02:48:36;18.10;99.90
37289;DHT22;23174;49.462;11.000;2022-09-01T02:50:41;18.10;99.90
37289;DHT22;23174;49.462;11.000;2022-09-01T02:52:42;18.10;99.90
37289;DHT22;23174;49.462;11.000;2022-09-01T02:54:43;18.10;99.90
37289;DHT22;23174;49.462;11.000;2022-09-01T02:56:45;18.10;99.90
37289;DHT22;23174;49.462;11.000;2022-09-01T02:58:49;18.10;99.90
37289;DHT22;23174;49.462;11.000;2022-09-01T03:00:55;18.10;99.90
37289;DHT22;23174;49.462;11.000;2022-09-01T03:02:58;18.10;99.90
37289;DHT22;23174;49.462;11.000;2022-09-01T03:04:58;18.10;99.90
37289;DHT22;23174;49.462;11.000;2022-09-01T03:07:03;18.10;99.90
37289;DHT22;23174;49.462;11.000;2022-09-01T03:09:07;18.10;99.90
37289;DHT22;23174;49.462;11.000;2022-09-01T03:11:08;18.00;99.90
37289;DHT22;23174;49.462;11.000;2022-09-01T03:13:12;18.00;99.90
37289;DHT22;23174;49.462;11.000;2022-09-01T03:15:14;18.00;99.90
37289;DHT22;23174;49.462;11.000;2022-09-01T03:17:14;17.90;99.90
37289;DHT22;23174;49.462;11.000;2022-09-01T03:19:15;17.90;99.90
37289;DHT22;23174;49.462;11.000;2022-09-01T03:21:22;17.90;99.90
37289;DHT22;23174;49.462;11.000;2022-09-01T03:23:22;17.90;99.90
37289;DHT22;23174;49.462;11.000;2022-09-01T03:25:24;17.90;99.90
37289;DHT22;23174;49.462;11.000;2022-09-01T03:27:25;17.90;99.90
37289;DHT22;23174;49.462;11.000;2022-09-01T03:29:26;17.90;99.90
37289;DHT22;23174;49.462;11.000;2022-09-01T03:31:26;17.80;99.90
37289;DHT22;23174;49.462;11.000;2022-09-01T03:33:27;17.80;99.90
37289;DHT22;23174;49.462;11.000;2022-09-01T03:35:30;17.80;99.90
37289;DHT22;23174;49.462;11.000;2022-09-01T03:37:32;17.80;99.90
37289;DHT22;23174;49.462;11.000;2022-09-01T03:39:33;17.80;99.90
37289;DHT22;23174;49.462;11.000;2022-09-01T03:41:33;17.80;99.90
37289;DHT22;23174;49.462;11.000;2022-09-01T03:43:37;17.70;99.90
37289;DHT22;23174;49.462;11.000;2022-09-01T03:45:38;17.70;99.90
37289;DHT22;23174;49.462;11.000;2022-09-01T03:47:39;17.70;99.90
37289;DHT22;23174;49.462;11.000;2022-09-01T03:49:40;17.60;99.90
37289;DHT22;23174;49.462;11.000;2022-09-01T03:51:43;17.60;99.90
37289;DHT22;23174;49.462;11.000;2022-09-01T03:53:44;17.60;99.90
37289;DHT22;23174;49.462;11.000;2022-09-01T03:55:46;17.60;99.90
37289;DHT22;23174;49.462;11.000;2022-09-01T03:57:56;17.60;99.90
37289;DHT22;23174;49.462;11.000;2022-09-01T03:59:57;17.60;99.90
37289;DHT22;23174;49.462;11.000;2022-09-01T04:01:59;17.60;99.90
37289;DHT22;23174;49.462;11.000;2022-09-01T04:03:59;17.50;99.90
37289;DHT22;23174;49.462;11.000;2022-09-01T04:06:01;17.30;99.90
37289;DHT22;23174;49.462;11.000;2022-09-01T04:08:05;17.10;99.90
37289;DHT22;23174;49.462;11.000;2022-09-01T04:10:06;17.00;99.90
37289;DHT22;23174;49.462;11.000;2022-09-01T04:12:10;17.00;99.90
37289;DHT22;23174;49.462;11.000;2022-09-01T04:14:15;17.00;99.90
37289;DHT22;23174;49.462;11.000;2022-09-01T04:16:36;16.90;99.90
37289;DHT22;23174;49.462;11.000;2022-09-01T04:18:55;16.90;99.90
37289;DHT22;23174;49.462;11.000;2022-09-01T04:20:57;16.90;99.90
37289;DHT22;23174;49.462;11.000;2022-09-01T04:22:58;16.90;99.90
37289;DHT22;23174;49.462;11.000;2022-09-01T04:24:59;16.80;99.90
37289;DHT22;23174;49.462;11.000;2022-09-01T04:27:01;16.90;99.90
37289;DHT22;23174;49.462;11.000;2022-09-01T04:29:01;16.80;99.90
37289;DHT22;23174;49.462;11.000;2022-09-01T04:31:04;16.80;99.90
37289;DHT22;23174;49.462;11.000;2022-09-01T04:33:08;16.80;99.90
37289;DHT22;23174;49.462;11.000;2022-09-01T04:35:09;16.80;99.90
37289;DHT22;23174;49.462;11.000;2022-09-01T04:37:19;16.70;99.90
37289;DHT22;23174;49.462;11.000;2022-09-01T04:39:21;16.80;99.90
37289;DHT22;23174;49.462;11.000;2022-09-01T04:41:28;16.70;99.90
37289;DHT22;23174;49.462;11.000;2022-09-01T04:43:30;16.80;99.90
37289;DHT22;23174;49.462;11.000;2022-09-01T04:45:30;16.80;99.90
37289;DHT22;23174;49.462;11.000;2022-09-01T04:47:34;16.80;99.90
37289;DHT22;23174;49.462;11.000;2022-09-01T04:49:35;16.70;99.90
37289;DHT22;23174;49.462;11.000;2022-09-01T04:51:41;16.70;99.90
37289;DHT22;23174;49.462;11.000;2022-09-01T04:53:43;16.70;99.90
37289;DHT22;23174;49.462;11.000;2022-09-01T04:55:47;16.70;99.90
37289;DHT22;23174;49.462;11.000;2022-09-01T04:57:49;16.80;99.90
37289;DHT22;23174;49.462;11.000;2022-09-01T04:59:49;16.70;99.90
37289;DHT22;23174;49.462;11.000;2022-09-01T05:01:50;16.70;99.90
37289;DHT22;23174;49.462;11.000;2022-09-01T05:03:54;16.70;99.90
37289;DHT22;23174;49.462;11.000;2022-09-01T05:06:00;16.70;99.90
37289;DHT22;23174;49.462;11.000;2022-09-01T05:08:01;16.70;99.90
37289;DHT22;23174;49.462;11.000;2022-09-01T05:10:02;16.80;99.90
37289;DHT22;23174;49.462;11.000;2022-09-01T05:12:04;16.70;99.90
37289;DHT22;23174;49.462;11.000;2022-09-01T05:14:14;16.80;99.90
37289;DHT22;23174;49.462;11.000;2022-09-01T05:16:19;16.80;99.90
37289;DHT22;23174;49.462;11.000;2022-09-01T05:18:20;16.80;99.90
37289;DHT22;23174;49.462;11.000;2022-09-01T05:20:23;16.80;99.90
37289;DHT22;23174;49.462;11.000;2022-09-01T05:22:24;16.80;99.90
37289;DHT22;23174;49.462;11.000;2022-09-01T05:24:25;16.80;99.90
37289;DHT22;23174;49.462;11.000;2022-09-01T05:26:31;16.80;99.90
37289;DHT22;23174;49.462;11.000;2022-09-01T05:28:33;16.90;99.90
37289;DHT22;23174;49.462;11.000;2022-09-01T05:30:35;16.90;99.90
37289;DHT22;23174;49.462;11.000;2022-09-01T05:32:37;16.90;99.90
37289;DHT22;23174;49.462;11.000;2022-09-01T05:34:39;16.80;99.90
37289;DHT22;23174;49.462;11.000;2022-09-01T05:36:45;16.90;99.90
37289;DHT22;23174;49.462;11.000;2022-09-01T05:38:49;16.90;99.90
37289;DHT22;23174;49.462;11.000;2022-09-01T05:41:00;16.80;99.90
37289;DHT22;23174;49.462;11.000;2022-09-01T05:43:11;16.80;99.90
37289;DHT22;23174;49.462;11.000;2022-09-01T05:45:12;16.80;99.90
37289;DHT22;23174;49.462;11.000;2022-09-01T05:47:13;16.70;99.90
37289;DHT22;23174;49.462;11.000;2022-09-01T05:49:16;16.70;99.90
37289;DHT22;23174;49.462;11.000;2022-09-01T05:51:20;16.70;99.90
37289;DHT22;23174;49.462;11.000;2022-09-01T05:53:21;16.70;99.90
37289;DHT22;23174;49.462;11.000;2022-09-01T05:55:24;16.80;99.90
37289;DHT22;23174;49.462;11.000;2022-09-01T05:57:26;16.80;99.90
37289;DHT22;23174;49.462;11.000;2022-09-01T05:59:28;16.80;99.90
37289;DHT22;23174;49.462;11.000;2022-09-01T06:01:30;16.80;99.90
37289;DHT22;23174;49.462;11.000;2022-09-01T06:03:32;16.80;99.90
37289;DHT22;23174;49.462;11.000;2022-09-01T06:05:34;16.80;99.90
37289;DHT22;23174;49.462;11.000;2022-09-01T06:07:37;16.90;99.90
37289;DHT22;23174;49.462;11.000;2022-09-01T06:09:43;16.90;99.90
37289;DHT22;23174;49.462;11.000;2022-09-01T06:11:45;16.90;99.90
37289;DHT22;23174;49.462;11.000;2022-09-01T06:13:46;17.00;99.90
37289;DHT22;23174;49.462;11.000;2022-09-01T06:15:48;17.00;99.90
37289;DHT22;23174;49.462;11.000;2022-09-01T06:17:48;17.00;99.90
37289;DHT22;23174;49.462;11.000;2022-09-01T06:19:53;17.10;99.90
37289;DHT22;23174;49.462;11.000;2022-09-01T06:21:57;17.10;99.90
37289;DHT22;23174;49.462;11.000;2022-09-01T06:23:59;17.10;99.90
37289;DHT22;23174;49.462;11.000;2022-09-01T06:26:00;17.20;99.90
37289;DHT22;23174;49.462;11.000;2022-09-01T06:28:01;17.20;99.90
37289;DHT22;23174;49.462;11.000;2022-09-01T06:30:05;17.30;99.90
37289;DHT22;23174;49.462;11.000;2022-09-01T06:32:14;17.40;99.90
37289;DHT22;23174;49.462;11.000;2022-09-01T06:34:14;17.40;99.90
37289;DHT22;23174;49.462;11.000;2022-09-01T06:36:18;17.50;99.90
37289;DHT22;23174;49.462;11.000;2022-09-01T06:38:20;17.50;99.90
37289;DHT22;23174;49.462;11.000;2022-09-01T06:40:21;17.50;99.90
37289;DHT22;23174;49.462;11.000;2022-09-01T06:42:24;17.50;99.90
37289;DHT22;23174;49.462;11.000;2022-09-01T06:44:25;17.40;99.90
37289;DHT22;23174;49.462;11.000;2022-09-01T06:46:26;17.40;99.90
37289;DHT22;23174;49.462;11.000;2022-09-01T06:48:28;17.50;99.90
37289;DHT22;23174;49.462;11.000;2022-09-01T06:50:30;17.50;99.90
37289;DHT22;23174;49.462;11.000;2022-09-01T06:52:30;17.50;99.90
37289;DHT22;23174;49.462;11.000;2022-09-01T06:54:32;17.40;99.90
37289;DHT22;23174;49.462;11.000;2022-09-01T06:56:34;17.40;99.90
37289;DHT22;23174;49.462;11.000;2022-09-01T06:58:35;17.50;99.90
37289;DHT22;23174;49.462;11.000;2022-09-01T07:00:38;17.40;99.90
37289;DHT22;23174;49.462;11.000;2022-09-01T07:02:46;17.60;99.90
37289;DHT22;23174;49.462;11.000;2022-09-01T07:04:47;17.50;99.90
37289;DHT22;23174;49.462;11.000;2022-09-01T07:06:49;17.60;99.90
37289;DHT22;23174;49.462;11.000;2022-09-01T07:08:55;17.60;99.90
37289;DHT22;23174;49.462;11.000;2022-09-01T07:10:56;17.70;99.90
37289;DHT22;23174;49.462;11.000;2022-09-01T07:12:58;17.90;99.90
37289;DHT22;23174;49.462;11.000;2022-09-01T07:15:00;17.80;99.90
37289;DHT22;23174;49.462;11.000;2022-09-01T07:17:02;17.70;99.90
37289;DHT22;23174;49.462;11.000;2022-09-01T07:19:03;17.70;99.90
37289;DHT22;23174;49.462;11.000;2022-09-01T07:21:06;17.80;99.90
37289;DHT22;23174;49.462;11.000;2022-09-01T07:23:07;17.90;99.90
37289;DHT22;23174;49.462;11.000;2022-09-01T07:25:08;17.90;99.90
37289;DHT22;23174;49.462;11.000;2022-09-01T07:27:11;17.90;99.90
37289;DHT22;23174;49.462;11.000;2022-09-01T07:29:12;18.00;99.90
37289;DHT22;23174;49.462;11.000;2022-09-01T07:31:20;18.00;99.90
37289;DHT22;23174;49.462;11.000;2022-09-01T07:33:23;18.20;99.90
37289;DHT22;23174;49.462;11.000;2022-09-01T07:35:24;18.10;99.90
37289;DHT22;23174;49.462;11.000;2022-09-01T07:37:24;18.00;99.90
37289;DHT22;23174;49.462;11.000;2022-09-01T07:39:27;18.10;99.90
37289;DHT22;23174;49.462;11.000;2022-09-01T07:41:27;18.10;99.90
37289;DHT22;23174;49.462;11.000;2022-09-01T07:43:28;18.20;99.90
37289;DHT22;23174;49.462;11.000;2022-09-01T07:45:31;18.30;99.90
37289;DHT22;23174;49.462;11.000;2022-09-01T07:47:32;18.30;99.90
37289;DHT22;23174;49.462;11.000;2022-09-01T07:49:36;18.30;99.90
37289;DHT22;23174;49.462;11.000;2022-09-01T07:51:37;18.50;99.90
37289;DHT22;23174;49.462;11.000;2022-09-01T07:53:37;18.60;99.90
37289;DHT22;23174;49.462;11.000;2022-09-01T07:55:39;18.50;99.90
37289;DHT22;23174;49.462;11.000;2022-09-01T07:57:42;18.50;99.90
37289;DHT22;23174;49.462;11.000;2022-09-01T07:59:43;18.60;99.90
37289;DHT22;23174;49.462;11.000;2022-09-01T08:01:43;18.60;99.90
37289;DHT22;23174;49.462;11.000;2022-09-01T08:03:49;18.70;99.90
37289;DHT22;23174;49.462;11.000;2022-09-01T08:05:51;18.60;99.90
37289;DHT22;23174;49.462;11.000;2022-09-01T08:07:56;19.00;99.90
37289;DHT22;23174;49.462;11.000;2022-09-01T08:09:57;18.90;99.90
37289;DHT22;23174;49.462;11.000;2022-09-01T08:11:58;18.90;99.90
37289;DHT22;23174;49.462;11.000;2022-09-01T08:13:59;19.00;99.90
37289;DHT22;23174;49.462;11.000;2022-09-01T08:16:03;19.00;99.90
37289;DHT22;23174;49.462;11.000;2022-09-01T08:18:04;18.90;99.90
37289;DHT22;23174;49.462;11.000;2022-09-01T08:20:05;18.80;99.90
37289;DHT22;23174;49.462;11.000;2022-09-01T08:22:08;18.90;99.90
37289;DHT22;23174;49.462;11.000;2022-09-01T08:24:09;19.10;99.90
37289;DHT22;23174;49.462;11.000;2022-09-01T08:26:13;19.10;99.90
37289;DHT22;23174;49.462;11.000;2022-09-01T08:28:14;19.00;99.90
37289;DHT22;23174;49.462;11.000;2022-09-01T08:30:15;19.20;99.90
37289;DHT22;23174;49.462;11.000;2022-09-01T08:32:16;19.30;99.90
37289;DHT22;23174;49.462;11.000;2022-09-01T08:34:16;19.20;99.90
37289;DHT22;23174;49.462;11.000;2022-09-01T08:36:18;19.30;99.90
37289;DHT22;23174;49.462;11.000;2022-09-01T08:38:19;19.40;99.90
37289;DHT22;23174;49.462;11.000;2022-09-01T08:40:20;19.50;99.90
37289;DHT22;23174;49.462;11.000;2022-09-01T08:42:27;19.30;99.90
37289;DHT22;23174;49.462;11.000;2022-09-01T08:44:43;19.40;99.90
37289;DHT22;23174;49.462;11.000;2022-09-01T08:46:47;19.50;99.90
37289;DHT22;23174;49.462;11.000;2022-09-01T08:48:55;19.60;99.90
37289;DHT22;23174;49.462;11.000;2022-09-01T08:51:19;19.60;99.90
37289;DHT22;23174;49.462;11.000;2022-09-01T08:53:27;19.70;99.90
37289;DHT22;23174;49.462;11.000;2022-09-01T08:55:35;19.70;99.90
37289;DHT22;23174;49.462;11.000;2022-09-01T08:57:42;19.80;99.90
37289;DHT22;23174;49.462;11.000;2022-09-01T08:59:43;19.90;99.90
37289;DHT22;23174;49.462;11.000;2022-09-01T09:04:25;20.10;99.90
37289;DHT22;23174;49.462;11.000;2022-09-01T09:06:39;20.10;99.90
37289;DHT22;23174;49.462;11.000;2022-09-01T09:09:01;20.00;99.90
37289;DHT22;23174;49.462;11.000;2022-09-01T09:14:04;20.20;99.90
37289;DHT22;23174;49.462;11.000;2022-09-01T09:16:21;20.10;99.90
37289;DHT22;23174;49.462;11.000;2022-09-01T09:18:39;20.10;99.90
37289;DHT22;23174;49.462;11.000;2022-09-01T09:20:42;20.20;99.90
37289;DHT22;23174;49.462;11.000;2022-09-01T09:22:44;20.30;99.90
37289;DHT22;23174;49.462;11.000;2022-09-01T09:25:01;20.30;99.90
37289;DHT22;23174;49.462;11.000;2022-09-01T09:27:03;20.30;99.90
37289;DHT22;23174;49.462;11.000;2022-09-01T09:29:03;20.40;99.90
37289;DHT22;23174;49.462;11.000;2022-09-01T09:31:23;20.40;99.90
37289;DHT22;23174;49.462;11.000;2022-09-01T09:33:31;20.50;99.90
37289;DHT22;23174;49.462;11.000;2022-09-01T09:37:38;20.30;99.90
37289;DHT22;23174;49.462;11.000;2022-09-01T09:39:39;20.30;99.90
37289;DHT22;23174;49.462;11.000;2022-09-01T09:41:40;20.30;99.90
37289;DHT22;23174;49.462;11.000;2022-09-01T09:43:46;20.40;99.90
37289;DHT22;23174;49.462;11.000;2022-09-01T09:45:47;20.50;99.90
37289;DHT22;23174;49.462;11.000;2022-09-01T09:47:48;20.60;99.90
37289;DHT22;23174;49.462;11.000;2022-09-01T09:52:15;20.70;99.90
37289;DHT22;23174;49.462;11.000;2022-09-01T09:54:28;20.70;99.90
37289;DHT22;23174;49.462;11.000;2022-09-01T09:56:29;20.70;99.90
37289;DHT22;23174;49.462;11.000;2022-09-01T09:58:37;20.70;99.90
37289;DHT22;23174;49.462;11.000;2022-09-01T10:00:38;20.70;99.90
37289;DHT22;23174;49.462;11.000;2022-09-01T10:02:44;20.70;99.90
37289;DHT22;23174;49.462;11.000;2022-09-01T10:04:45;20.70;99.90
37289;DHT22;23174;49.462;11.000;2022-09-01T10:06:46;20.90;99.90
37289;DHT22;23174;49.462;11.000;2022-09-01T10:08:46;20.90;99.90
37289;DHT22;23174;49.462;11.000;2022-09-01T10:10:49;20.80;99.90
37289;DHT22;23174;49.462;11.000;2022-09-01T10:12:52;20.90;99.90
37289;DHT22;23174;49.462;11.000;2022-09-01T10:14:57;21.00;99.90
37289;DHT22;23174;49.462;11.000;2022-09-01T10:17:03;21.10;99.90
37289;DHT22;23174;49.462;11.000;2022-09-01T10:19:10;21.10;99.90
37289;DHT22;23174;49.462;11.000;2022-09-01T10:21:19;21.00;99.90
37289;DHT22;23174;49.462;11.000;2022-09-01T10:23:23;21.00;99.90
37289;DHT22;23174;49.462;11.000;2022-09-01T10:25:28;21.10;99.90
37289;DHT22;23174;49.462;11.000;2022-09-01T10:27:35;21.20;99.90
37289;DHT22;23174;49.462;11.000;2022-09-01T10:30:24;21.10;99.90
37289;DHT22;23174;49.462;11.000;2022-09-01T10:32:19;21.10;99.90
37289;DHT22;23174;49.462;11.000;2022-09-01T10:34:21;21.20;99.90
37289;DHT22;23174;49.462;11.000;2022-09-01T10:36:22;21.00;99.90
37289;DHT22;23174;49.462;11.000;2022-09-01T10:38:25;21.00;99.90
37289;DHT22;23174;49.462;11.000;2022-09-01T10:40:41;21.00;99.90
37289;DHT22;23174;49.462;11.000;2022-09-01T10:42:47;20.90;99.90
37289;DHT22;23174;49.462;11.000;2022-09-01T10:44:57;21.00;99.90
37289;DHT22;23174;49.462;11.000;2022-09-01T10:47:09;21.10;99.90
37289;DHT22;23174;49.462;11.000;2022-09-01T10:49:19;21.20;99.90
37289;DHT22;23174;49.462;11.000;2022-09-01T10:53:54;21.30;99.90
37289;DHT22;23174;49.462;11.000;2022-09-01T11:00:57;21.30;99.90
37289;DHT22;23174;49.462;11.000;2022-09-01T11:05:13;21.50;99.90
37289;DHT22;23174;49.462;11.000;2022-09-01T11:09:22;21.30;99.90
37289;DHT22;23174;49.462;11.000;2022-09-01T11:11:38;21.50;99.90
37289;DHT22;23174;49.462;11.000;2022-09-01T11:13:49;21.50;99.90
37289;DHT22;23174;49.462;11.000;2022-09-01T11:15:50;21.60;99.90
37289;DHT22;23174;49.462;11.000;2022-09-01T11:17:55;21.60;99.90
37289;DHT22;23174;49.462;11.000;2022-09-01T11:22:25;21.70;99.90
37289;DHT22;23174;49.462;11.000;2022-09-01T11:26:48;21.80;99.90
37289;DHT22;23174;49.462;11.000;2022-09-01T11:28:49;21.80;99.90
37289;DHT22;23174;49.462;11.000;2022-09-01T11:30:59;21.90;99.90
37289;DHT22;23174;49.462;11.000;2022-09-01T11:35:22;22.00;99.90
37289;DHT22;23174;49.462;11.000;2022-09-01T11:37:24;21.90;99.90
37289;DHT22;23174;49.462;11.000;2022-09-01T11:39:35;21.90;99.90
37289;DHT22;23174;49.462;11.000;2022-09-01T11:43:40;21.90;99.90
37289;DHT22;23174;49.462;11.000;2022-09-01T11:46:15;21.90;99.90
37289;DHT22;23174;49.462;11.000;2022-09-01T11:48:19;22.00;99.90
37289;DHT22;23174;49.462;11.000;2022-09-01T11:50:32;22.00;99.90
37289;DHT22;23174;49.462;11.000;2022-09-01T11:52:35;21.80;99.90
37289;DHT22;23174;49.462;11.000;2022-09-01T11:54:42;21.80;99.90
37289;DHT22;23174;49.462;11.000;2022-09-01T11:56:42;21.70;99.90
37289;DHT22;23174;49.462;11.000;2022-09-01T11:58:43;21.70;99.90
37289;DHT22;23174;49.462;11.000;2022-09-01T12:00:44;21.70;99.90
37289;DHT22;23174;49.462;11.000;2022-09-01T12:02:47;21.80;99.90
37289;DHT22;23174;49.462;11.000;2022-09-01T12:04:50;21.80;99.90
37289;DHT22;23174;49.462;11.000;2022-09-01T12:07:00;21.70;99.90
37289;DHT22;23174;49.462;11.000;2022-09-01T12:09:03;21.60;99.90
37289;DHT22;23174;49.462;11.000;2022-09-01T12:11:27;21.60;99.90
37289;DHT22;23174;49.462;11.000;2022-09-01T12:13:29;21.60;99.90
37289;DHT22;23174;49.462;11.000;2022-09-01T12:15:30;21.50;99.90
37289;DHT22;23174;49.462;11.000;2022-09-01T12:17:31;21.50;99.90
37289;DHT22;23174;49.462;11.000;2022-09-01T12:19:34;21.60;99.90
37289;DHT22;23174;49.462;11.000;2022-09-01T12:21:42;21.60;99.90
37289;DHT22;23174;49.462;11.000;2022-09-01T12:23:43;21.50;99.90
37289;DHT22;23174;49.462;11.000;2022-09-01T12:25:45;21.40;99.90
37289;DHT22;23174;49.462;11.000;2022-09-01T12:27:45;21.60;99.90
37289;DHT22;23174;49.462;11.000;2022-09-01T12:29:46;21.60;99.90
37289;DHT22;23174;49.462;11.000;2022-09-01T12:31:49;21.60;99.90
37289;DHT22;23174;49.462;11.000;2022-09-01T12:33:53;21.60;99.90
37289;DHT22;23174;49.462;11.000;2022-09-01T12:36:25;21.50;99.90
37289;DHT22;23174;49.462;11.000;2022-09-01T12:38:28;21.50;99.90
37289;DHT22;23174;49.462;11.000;2022-09-01T12:40:33;21.50;99.90
37289;DHT22;23174;49.462;11.000;2022-09-01T12:42:35;21.50;99.90
37289;DHT22;23174;49.462;11.000;2022-09-01T12:46:41;21.50;99.90
37289;DHT22;23174;49.462;11.000;2022-09-01T12:48:45;21.60;99.90
37289;DHT22;23174;49.462;11.000;2022-09-01T12:50:45;21.60;99.90
37289;DHT22;23174;49.462;11.000;2022-09-01T12:52:51;21.60;99.90
37289;DHT22;23174;49.462;11.000;2022-09-01T12:57:03;21.60;99.90
37289;DHT22;23174;49.462;11.000;2022-09-01T12:59:09;21.60;99.90
37289;DHT22;23174;49.462;11.000;2022-09-01T13:01:27;21.70;99.90
37289;DHT22;23174;49.462;11.000;2022-09-01T13:03:28;21.70;99.90
37289;DHT22;23174;49.462;11.000;2022-09-01T13:05:33;21.70;99.90
37289;DHT22;23174;49.462;11.000;2022-09-01T13:07:33;21.70;99.90
37289;DHT22;23174;49.462;11.000;2022-09-01T13:09:37;21.60;99.90
37289;DHT22;23174;49.462;11.000;2022-09-01T13:11:38;21.70;99.90
37289;DHT22;23174;49.462;11.000;2022-09-01T13:13:39;21.70;99.90
37289;DHT22;23174;49.462;11.000;2022-09-01T13:15:49;21.80;99.90
37289;DHT22;23174;49.462;11.000;2022-09-01T13:17:50;21.90;99.90
37289;DHT22;23174;49.462;11.000;2022-09-01T13:19:51;21.90;99.90
37289;DHT22;23174;49.462;11.000;2022-09-01T13:21:52;21.70;99.90
37289;DHT22;23174;49.462;11.000;2022-09-01T13:23:52;21.80;99.90
37289;DHT22;23174;49.462;11.000;2022-09-01T13:25:53;21.90;99.90
37289;DHT22;23174;49.462;11.000;2022-09-01T13:27:54;21.80;99.90